Time;durP1;ratioP1;P1;durP2;ratioP2;P2;SDS_P1;SDS_P2;PMS_P1;PMS_P2;Temp;Humidity;BMP_temperature;BMP_pressure;BME280_temperature;BME280_humidity;BME280_pressure;Samples;Min_cycle;Max_cycle;Signal;HPM_P1;HPM_P2
2022/03/02 00:01:58;;;;;;;53.07;45.67;;;;;;;-1.67;79.77;99685.94;5015116;28;20144;-58
2022/03/02 00:04:24;;;;;;;46.90;40.43;;;;;;;-1.64;79.29;99683.53;5016691;28;20694;-58
2022/03/02 00:06:49;;;;;;;39.37;35.30;;;;;;;-1.62;78.64;99682.84;5013493;28;20398;-58
2022/03/02 00:09:15;;;;;;;25.97;23.10;;;;;;;-1.58;78.59;99684.72;5014685;28;20049;-56
2022/03/02 00:11:40;;;;;;;23.90;20.43;;;;;;;-1.52;78.41;99684.09;5014542;28;20080;-57
2022/03/02 00:14:06;;;;;;;20.67;17.60;;;;;;;-1.55;78.52;99677.28;5013720;28;20096;-55
2022/03/02 00:16:32;;;;;;;29.67;26.53;;;;;;;-1.68;79.15;99680.03;5010917;28;20045;-55
2022/03/02 00:18:59;;;;;;;25.20;22.60;;;;;;;-1.63;78.99;99665.16;5013900;28;20040;-57
2022/03/02 00:21:25;;;;;;;21.50;17.83;;;;;;;-1.62;79.09;99672.78;5015715;28;20041;-57
2022/03/02 00:23:51;;;;;;;31.13;21.43;;;;;;;-1.65;78.72;99669.25;5012846;28;20049;-57
2022/03/02 00:26:17;;;;;;;20.87;11.03;;;;;;;-1.74;79.60;99663.81;5009958;28;20037;-58
2022/03/02 00:28:42;;;;;;;19.20;11.00;;;;;;;-1.64;79.75;99654.25;5014954;28;20041;-57
2022/03/02 00:31:08;;;;;;;20.63;9.60;;;;;;;-1.69;80.04;99665.75;5015788;28;20096;-58
2022/03/02 00:33:33;;;;;;;25.97;13.23;;;;;;;-1.76;80.66;99662.88;5013884;28;20103;-57
2022/03/02 00:35:59;;;;;;;19.33;8.60;;;;;;;-1.86;81.17;99664.97;5013813;28;20046;-56
2022/03/02 00:38:24;;;;;;;17.43;10.83;;;;;;;-1.87;81.94;99663.22;5013234;28;20096;-56
2022/03/02 00:40:50;;;;;;;17.73;12.20;;;;;;;-2.02;82.38;99654.13;5012100;28;20076;-57
2022/03/02 00:43:16;;;;;;;20.23;13.07;;;;;;;-1.95;83.00;99662.03;5013217;28;20038;-57
2022/03/02 00:45:42;;;;;;;13.90;9.23;;;;;;;-2.00;82.85;99647.53;5014456;28;20104;-56
2022/03/02 00:48:08;;;;;;;15.60;8.43;;;;;;;-1.89;82.05;99649.75;5012218;28;20053;-57
2022/03/02 00:50:34;;;;;;;15.80;8.30;;;;;;;-1.79;80.67;99653.56;5013194;28;20051;-57
2022/03/02 00:53:00;;;;;;;17.10;8.23;;;;;;;-1.82;80.90;99648.38;5015059;28;20034;-56
2022/03/02 00:55:26;;;;;;;20.40;8.23;;;;;;;-1.82;80.57;99643.34;5015320;28;20073;-57
2022/03/02 00:57:51;;;;;;;14.80;8.17;;;;;;;-1.91;81.37;99642.94;5013492;28;20200;-57
2022/03/02 01:00:17;;;;;;;17.30;9.57;;;;;;;-2.00;82.34;99647.53;5014565;28;20042;-57
2022/03/02 01:02:43;;;;;;;16.30;8.57;;;;;;;-2.11;83.14;99631.09;5015338;28;20065;-58
2022/03/02 01:05:09;;;;;;;24.17;9.47;;;;;;;-2.06;83.19;99642.22;5013074;28;20132;-58
2022/03/02 01:07:36;;;;;;;17.03;7.37;;;;;;;-2.31;85.19;99633.53;5015615;28;20053;-58
2022/03/02 01:10:04;;;;;;;18.87;8.90;;;;;;;-2.36;86.82;99640.00;5014986;28;20037;-55
2022/03/02 01:12:30;;;;;;;19.53;8.20;;;;;;;-2.31;86.97;99633.53;5012425;28;20068;-57
2022/03/02 01:14:56;;;;;;;16.50;8.03;;;;;;;-2.25;85.61;99644.66;5011721;28;20038;-55
2022/03/02 01:17:21;;;;;;;18.57;7.53;;;;;;;-2.40;86.84;99637.25;5016128;28;20627;-56
2022/03/02 01:19:48;;;;;;;17.27;8.07;;;;;;;-2.43;87.28;99635.47;5016455;28;20072;-57
2022/03/02 01:22:14;;;;;;;11.87;6.27;;;;;;;-2.49;87.86;99630.13;5012381;28;20050;-57
2022/03/02 01:24:40;;;;;;;17.13;7.90;;;;;;;-2.56;88.85;99637.31;5015282;28;20052;-56
2022/03/02 01:27:06;;;;;;;15.40;7.30;;;;;;;-2.63;88.56;99641.16;5017333;28;20045;-55
2022/03/02 01:29:33;;;;;;;14.40;8.70;;;;;;;-2.72;89.83;99638.22;5014972;28;20049;-56
2022/03/02 01:32:00;;;;;;;17.03;8.50;;;;;;;-2.66;89.15;99642.66;5013634;28;20077;-56
2022/03/02 01:34:26;;;;;;;19.60;8.33;;;;;;;-2.64;88.54;99634.44;5012897;28;20037;-56
2022/03/02 01:36:51;;;;;;;18.20;8.50;;;;;;;-2.71;89.29;99627.38;5016659;28;20041;-56
2022/03/02 01:39:17;;;;;;;14.50;8.83;;;;;;;-2.85;90.34;99626.72;5012628;28;20078;-56
2022/03/02 01:41:42;;;;;;;18.57;11.43;;;;;;;-3.01;91.87;99628.38;5012716;28;20628;-57
2022/03/02 01:44:07;;;;;;;20.33;14.37;;;;;;;-2.99;92.44;99620.13;5014232;28;20064;-56
2022/03/02 01:46:34;;;;;;;22.23;9.70;;;;;;;-3.03;92.73;99620.78;5017008;28;20045;-58
2022/03/02 01:48:59;;;;;;;16.77;11.13;;;;;;;-3.09;93.34;99627.97;5014155;28;20042;-57
2022/03/02 01:51:25;;;;;;;19.60;10.93;;;;;;;-2.94;93.24;99628.75;5011978;28;20163;-56
2022/03/02 01:53:51;;;;;;;23.23;13.30;;;;;;;-2.89;91.92;99627.34;5011445;28;20183;-58
2022/03/02 01:56:17;;;;;;;21.70;19.30;;;;;;;-2.78;90.13;99618.69;5013393;28;20068;-58
2022/03/02 01:58:45;;;;;;;28.87;24.10;;;;;;;-2.74;88.95;99614.69;5014120;28;20553;-57
2022/03/02 02:01:11;;;;;;;23.40;16.43;;;;;;;-2.72;88.79;99609.75;5015164;28;20045;-60
2022/03/02 02:03:38;;;;;;;62.30;46.20;;;;;;;-2.70;87.80;99603.13;5017637;28;20042;-56
2022/03/02 02:06:04;;;;;;;82.23;52.67;;;;;;;-2.59;87.40;99607.91;5017331;28;20569;-55
2022/03/02 02:08:31;;;;;;;46.70;38.83;;;;;;;-2.54;86.24;99601.44;5016779;28;20053;-57
2022/03/02 02:10:59;;;;;;;78.80;50.57;;;;;;;-2.45;86.38;99598.50;5019531;28;20045;-57
2022/03/02 02:13:27;;;;;;;51.27;39.70;;;;;;;-2.38;86.08;99595.53;5017259;28;20195;-57
2022/03/02 02:15:54;;;;;;;19.07;8.77;;;;;;;-2.29;85.10;99595.94;5016203;28;20038;-58
2022/03/02 02:18:20;;;;;;;19.60;9.23;;;;;;;-2.14;83.30;99591.63;5017026;28;20056;-57
2022/03/02 02:20:46;;;;;;;18.37;7.50;;;;;;;-2.04;82.67;99583.75;5019046;28;20116;-57
2022/03/02 02:23:12;;;;;;;18.37;8.97;;;;;;;-2.09;83.03;99587.69;5014149;28;20041;-56
2022/03/02 02:25:38;;;;;;;13.40;8.00;;;;;;;-2.06;82.57;99591.97;5016032;28;20042;-57
2022/03/02 02:28:03;;;;;;;19.30;8.97;;;;;;;-2.19;83.11;99585.53;5017907;28;20108;-56
2022/03/02 02:30:30;;;;;;;21.20;7.80;;;;;;;-2.08;83.28;99583.53;5018138;28;20438;-56
2022/03/02 02:32:56;;;;;;;16.37;8.47;;;;;;;-1.91;82.01;99586.00;5018723;28;20096;-57
2022/03/02 02:35:22;;;;;;;21.00;9.53;;;;;;;-1.87;81.62;99585.34;5018776;28;20045;-57
2022/03/02 02:37:48;;;;;;;18.50;9.20;;;;;;;-1.81;81.39;99584.75;5019589;28;20045;-57
2022/03/02 02:40:17;;;;;;;17.27;8.93;;;;;;;-1.81;81.20;99582.25;5016201;28;20034;-58
2022/03/02 02:42:45;;;;;;;15.37;8.23;;;;;;;-1.80;81.09;99578.09;5013611;28;20071;-58
2022/03/02 02:45:14;;;;;;;15.20;8.17;;;;;;;-1.74;81.09;99571.66;5015596;28;20047;-57
2022/03/02 02:47:40;;;;;;;15.57;9.07;;;;;;;-1.77;80.72;99570.69;5014365;28;20092;-58
2022/03/02 02:50:27;;;;;;;16.47;8.70;;;;;;;-1.86;81.57;99572.00;5016158;28;20092;-56
2022/03/02 02:52:54;;;;;;;22.03;14.20;;;;;;;-1.86;81.44;99559.44;5016718;28;20065;-56
2022/03/02 02:55:22;;;;;;;19.20;8.00;;;;;;;-1.80;81.16;99566.38;5016622;28;20042;-57
2022/03/02 02:57:48;;;;;;;22.53;12.07;;;;;;;-1.78;80.69;99558.94;5015226;28;20060;-55
2022/03/02 03:00:16;;;;;;;16.03;8.90;;;;;;;-1.75;80.54;99554.91;5014946;28;20041;-57
2022/03/02 03:02:41;;;;;;;15.33;8.53;;;;;;;-1.66;79.05;99552.78;5016448;28;20042;-58
2022/03/02 03:05:12;;;;;;;14.23;7.40;;;;;;;-1.74;79.95;99548.22;5014238;28;20506;-58
2022/03/02 03:07:38;;;;;;;21.97;9.13;;;;;;;-1.68;79.42;99556.88;5014407;28;20496;-57
2022/03/02 03:10:05;;;;;;;23.03;8.43;;;;;;;-1.70;79.55;99560.13;5017348;28;20029;-56
2022/03/02 03:12:31;;;;;;;14.97;8.47;;;;;;;-1.70;79.36;99558.47;5015138;28;20082;-57
2022/03/02 03:14:56;;;;;;;15.13;8.00;;;;;;;-1.80;79.57;99543.78;5014345;28;20517;-53
2022/03/02 03:17:22;;;;;;;18.77;9.30;;;;;;;-1.73;79.66;99555.81;5014096;28;20090;-55
2022/03/02 03:19:47;;;;;;;23.23;9.57;;;;;;;-1.80;79.58;99551.31;5018965;28;20549;-56
2022/03/02 03:22:13;;;;;;;18.27;8.33;;;;;;;-1.81;80.18;99562.16;5014232;28;20093;-55
2022/03/02 03:24:39;;;;;;;16.67;8.30;;;;;;;-1.75;80.08;99556.53;5015068;28;20045;-58
2022/03/02 03:27:04;;;;;;;15.83;8.23;;;;;;;-1.85;80.27;99547.72;5014891;28;20045;-58
2022/03/02 03:29:29;;;;;;;17.50;9.87;;;;;;;-1.81;80.47;99552.09;5016170;28;20052;-53
2022/03/02 03:31:55;;;;;;;17.00;9.03;;;;;;;-1.91;81.00;99547.47;5014307;28;20042;-57
2022/03/02 03:34:20;;;;;;;20.13;8.67;;;;;;;-1.87;80.81;99555.19;5014458;28;20612;-56
2022/03/02 03:36:46;;;;;;;19.63;8.83;;;;;;;-1.93;81.06;99554.06;5016053;28;20053;-58
2022/03/02 03:39:11;;;;;;;21.77;9.47;;;;;;;-2.09;83.18;99549.16;5014714;28;20045;-57
2022/03/02 03:41:36;;;;;;;17.80;8.97;;;;;;;-1.91;82.39;99547.47;5013688;28;20037;-57
2022/03/02 03:44:02;;;;;;;18.73;10.33;;;;;;;-1.92;82.18;99541.59;5017087;28;20104;-58
2022/03/02 03:46:28;;;;;;;19.47;9.63;;;;;;;-2.02;82.90;99534.41;5015646;28;20180;-55
2022/03/02 03:48:53;;;;;;;16.23;8.13;;;;;;;-2.04;82.63;99532.66;5015118;28;20048;-57
2022/03/02 03:51:19;;;;;;;18.40;9.07;;;;;;;-2.14;84.05;99543.06;5014407;28;20045;-57
2022/03/02 03:53:44;;;;;;;19.87;7.83;;;;;;;-2.27;84.34;99530.72;5016301;28;20069;-56
2022/03/02 03:56:10;;;;;;;15.20;9.13;;;;;;;-2.45;85.92;99533.25;5015693;28;20080;-58
2022/03/02 03:58:36;;;;;;;21.47;11.03;;;;;;;-2.46;87.54;99549.13;5017638;28;20103;-56
2022/03/02 04:01:01;;;;;;;21.23;10.93;;;;;;;-2.44;87.40;99533.31;5016518;28;20137;-56
2022/03/02 04:03:27;;;;;;;19.87;8.90;;;;;;;-2.54;87.54;99538.69;5030899;28;20045;-58
2022/03/02 04:05:52;;;;;;;19.40;10.43;;;;;;;-2.52;87.61;99531.25;5017515;28;20057;-58
2022/03/02 04:08:18;;;;;;;16.23;8.43;;;;;;;-2.66;88.65;99545.66;5013311;28;20053;-57
2022/03/02 04:10:45;;;;;;;16.77;7.57;;;;;;;-2.81;90.84;99540.78;5015417;28;20099;-54
2022/03/02 04:13:13;;;;;;;16.37;7.90;;;;;;;-2.74;91.67;99549.44;5013850;28;20050;-58
2022/03/02 04:15:39;;;;;;;15.93;7.27;;;;;;;-2.61;89.88;99550.88;5012649;28;20041;-56
2022/03/02 04:18:06;;;;;;;17.77;8.47;;;;;;;-2.77;90.97;99549.31;5012774;28;20038;-59
2022/03/02 04:20:32;;;;;;;20.77;8.70;;;;;;;-2.76;91.86;99546.03;5012939;28;20051;-57
2022/03/02 04:22:58;;;;;;;18.33;8.97;;;;;;;-2.93;91.88;99550.19;5012487;28;20491;-57
2022/03/02 04:25:23;;;;;;;17.10;7.73;;;;;;;-3.10;93.18;99551.06;5012933;28;20034;-54
2022/03/02 04:27:49;;;;;;;19.87;8.27;;;;;;;-3.30;95.80;99549.19;5013822;28;20041;-57
2022/03/02 04:30:14;;;;;;;15.03;7.70;;;;;;;-3.42;98.92;99538.53;5012712;28;20037;-57
2022/03/02 04:32:40;;;;;;;19.47;9.07;;;;;;;-3.50;100.00;99538.16;5014618;28;20077;-57
2022/03/02 04:35:09;;;;;;;15.27;8.70;;;;;;;-3.60;100.00;99535.09;5014245;28;20156;-56
2022/03/02 04:37:35;;;;;;;19.13;8.17;;;;;;;-3.69;100.00;99541.34;5013983;28;20153;-55
2022/03/02 04:40:00;;;;;;;16.10;8.27;;;;;;;-3.82;100.00;99531.50;5012757;28;20037;-57
2022/03/02 04:42:26;;;;;;;17.30;9.53;;;;;;;-3.86;100.00;99539.63;5013226;28;20049;-56
2022/03/02 04:44:51;;;;;;;15.43;7.77;;;;;;;-3.98;100.00;99525.59;5014112;28;20041;-56
2022/03/02 04:47:17;;;;;;;14.43;7.93;;;;;;;-3.80;100.00;99534.94;5013617;28;20042;-58
2022/03/02 04:49:42;;;;;;;21.30;8.50;;;;;;;-3.47;100.00;99530.78;5015065;28;20042;-55
2022/03/02 04:52:08;;;;;;;18.47;7.87;;;;;;;-3.29;100.00;99528.34;5013695;28;20767;-55
2022/03/02 04:57:17;;;;;;;19.47;7.93;;;;;;;-2.85;96.70;99513.81;5015934;28;20099;-56
2022/03/02 04:59:42;;;;;;;12.83;6.93;;;;;;;-2.57;94.86;99528.53;5013907;28;20038;-57
2022/03/02 05:02:08;;;;;;;15.60;8.60;;;;;;;-2.40;92.38;99521.78;5018604;28;20522;-57
2022/03/02 05:04:33;;;;;;;19.53;8.40;;;;;;;-2.22;90.83;99514.22;5014801;28;20117;-57
2022/03/02 05:06:59;;;;;;;15.93;7.97;;;;;;;-2.24;90.42;99516.66;5014795;28;20095;-58
2022/03/02 05:09:24;;;;;;;15.87;8.00;;;;;;;-2.10;89.29;99520.66;5015911;28;20168;-57
2022/03/02 05:11:49;;;;;;;17.33;9.13;;;;;;;-2.06;88.19;99516.63;5015582;28;20417;-54
2022/03/02 05:14:15;;;;;;;16.43;8.37;;;;;;;-1.98;86.68;99515.31;5014036;28;20050;-56
2022/03/02 05:16:40;;;;;;;20.93;9.57;;;;;;;-1.95;86.55;99520.47;5013354;28;20033;-57
2022/03/02 05:19:06;;;;;;;14.93;8.10;;;;;;;-1.94;85.65;99517.16;5012130;28;20128;-57
2022/03/02 05:21:31;;;;;;;13.60;8.13;;;;;;;-2.01;86.07;99516.06;5012885;28;20041;-56
2022/03/02 05:23:57;;;;;;;19.10;7.60;;;;;;;-2.09;86.91;99512.34;5012269;28;20042;-57
2022/03/02 05:26:23;;;;;;;17.67;7.93;;;;;;;-2.13;87.12;99512.13;5012657;28;20034;-57
2022/03/02 05:28:48;;;;;;;18.03;8.17;;;;;;;-2.24;88.56;99518.31;5014760;28;20129;-56
2022/03/02 05:31:13;;;;;;;22.83;10.40;;;;;;;-2.45;89.73;99501.47;5012948;28;20038;-55
2022/03/02 05:33:39;;;;;;;19.73;9.77;;;;;;;-2.51;90.82;99515.41;5011363;28;20050;-55
2022/03/02 05:36:04;;;;;;;22.70;11.40;;;;;;;-2.61;92.48;99525.78;5018521;28;20127;-57
2022/03/02 05:38:30;;;;;;;23.37;11.37;;;;;;;-2.82;94.07;99518.97;5016146;28;20042;-55
2022/03/02 05:40:55;;;;;;;24.53;10.43;;;;;;;-2.95;95.69;99520.81;5019901;28;20041;-55
2022/03/02 05:43:21;;;;;;;23.67;10.43;;;;;;;-2.89;96.20;99523.63;5022642;28;20114;-58
2022/03/02 05:45:46;;;;;;;21.00;8.83;;;;;;;-3.00;96.80;99524.75;5013513;28;20704;-57
2022/03/02 05:48:11;;;;;;;19.87;10.20;;;;;;;-2.97;97.13;99524.91;5013173;28;20076;-58
2022/03/02 05:50:37;;;;;;;21.60;9.13;;;;;;;-2.97;96.66;99519.91;5017425;28;21617;-56
2022/03/02 05:53:03;;;;;;;20.27;9.47;;;;;;;-2.79;95.84;99526.63;5019307;28;20038;-58
2022/03/02 05:55:28;;;;;;;18.60;10.13;;;;;;;-2.60;94.16;99525.00;5016948;28;20060;-57
2022/03/02 05:57:54;;;;;;;17.63;8.57;;;;;;;-2.66;94.68;99529.72;5013858;28;20093;-56
2022/03/02 06:00:19;;;;;;;18.77;9.10;;;;;;;-2.78;95.16;99525.88;5014040;28;20041;-57
2022/03/02 06:02:46;;;;;;;15.17;8.03;;;;;;;-2.95;96.44;99515.81;5015726;28;20084;-55
2022/03/02 06:05:12;;;;;;;15.87;8.47;;;;;;;-2.90;97.71;99524.41;5016880;28;20096;-57
2022/03/02 06:07:38;;;;;;;26.40;9.83;;;;;;;-2.93;98.43;99525.09;5018716;28;20468;-57
2022/03/02 06:10:04;;;;;;;21.93;8.20;;;;;;;-2.81;98.02;99523.22;5017167;28;20061;-57
2022/03/02 06:12:30;;;;;;;17.10;8.00;;;;;;;-2.48;100.00;99530.59;5014325;28;20873;-57
2022/03/02 06:14:55;;;;;;;17.37;8.77;;;;;;;-2.57;96.87;99531.03;5015176;28;20045;-58
2022/03/02 06:17:21;;;;;;;17.77;9.07;;;;;;;-2.49;96.18;99532.25;5016545;28;20038;-58
2022/03/02 06:19:47;;;;;;;18.17;9.07;;;;;;;-2.37;95.20;99525.28;5020167;28;20092;-58
2022/03/02 06:22:17;;;;;;;16.80;7.67;;;;;;;-2.23;93.27;99512.50;5018447;28;20053;-57
2022/03/02 06:24:42;;;;;;;19.93;9.00;;;;;;;-1.96;91.50;99517.13;5017609;28;20041;-57
2022/03/02 06:27:08;;;;;;;18.77;8.30;;;;;;;-1.87;90.80;99526.72;5013411;28;20542;-58
2022/03/02 06:29:33;;;;;;;16.03;8.40;;;;;;;-1.78;90.14;99516.22;5012428;28;20650;-59
2022/03/02 06:31:59;;;;;;;12.97;7.27;;;;;;;-1.49;87.46;99524.22;5011270;28;20042;-57
2022/03/02 06:34:24;;;;;;;17.90;9.00;;;;;;;-1.48;86.54;99528.41;5016442;28;20591;-57
2022/03/02 06:36:51;;;;;;;24.70;14.03;;;;;;;-1.47;87.02;99521.75;5012388;28;20041;-57
2022/03/02 06:39:21;;;;;;;22.13;12.57;;;;;;;-1.41;87.17;99517.00;5012209;28;20738;-56
2022/03/02 06:41:49;;;;;;;19.53;11.37;;;;;;;-1.32;87.02;99524.94;5017587;28;20038;-58
2022/03/02 06:44:31;;;;;;;18.10;10.13;;;;;;;-1.26;87.10;99521.78;5018379;28;20093;-56
2022/03/02 06:47:09;;;;;;;17.23;7.97;;;;;;;-1.17;86.88;99525.56;5015506;28;20133;-56
2022/03/02 06:49:59;;;;;;;18.77;9.13;;;;;;;-0.95;86.97;99519.75;5014572;28;20076;-57
2022/03/02 06:52:29;;;;;;;17.93;9.03;;;;;;;-0.87;85.25;99515.88;5015027;28;20038;-57
2022/03/02 06:54:58;;;;;;;14.60;8.33;;;;;;;-0.66;83.04;99519.25;5015875;28;20407;-59
2022/03/02 06:57:27;;;;;;;14.40;7.30;;;;;;;-0.45;79.72;99506.63;5015444;28;20048;-62
2022/03/02 06:59:58;;;;;;;14.80;6.90;;;;;;;-0.26;75.94;99511.56;5018031;28;20025;-57
2022/03/02 07:02:44;;;;;;;13.97;6.87;;;;;;;-0.06;74.14;99509.78;5016602;28;20439;-59
2022/03/02 07:05:09;;;;;;;16.13;8.82;;;;;;;0.06;73.12;99509.38;5016752;28;20053;-57
2022/03/02 07:07:36;;;;;;;14.50;7.63;;;;;;;0.26;71.86;99508.41;5014760;28;20044;-59
2022/03/02 07:10:02;;;;;;;17.27;8.20;;;;;;;0.36;70.11;99508.81;5018788;28;20045;-60
2022/03/02 07:12:28;;;;;;;13.73;7.53;;;;;;;0.48;68.57;99503.34;5013703;28;20052;-59
2022/03/02 07:14:54;;;;;;;14.63;8.77;;;;;;;0.56;68.10;99501.94;5013303;28;20749;-59
2022/03/02 07:17:23;;;;;;;17.33;8.40;;;;;;;0.74;67.77;99507.59;5016508;28;20125;-60
2022/03/02 07:19:49;;;;;;;14.87;8.07;;;;;;;0.90;65.96;99506.44;5017135;28;20045;-59
2022/03/02 07:22:21;;;;;;;12.63;7.47;;;;;;;1.00;64.87;99497.53;5015579;28;20041;-61
2022/03/02 07:24:58;;;;;;;16.93;9.37;;;;;;;1.03;63.88;99493.41;5017832;28;20042;-59
2022/03/02 07:27:25;;;;;;;14.17;8.17;;;;;;;1.07;63.11;99490.19;5012090;28;20045;-59
2022/03/02 07:29:53;;;;;;;13.90;6.83;;;;;;;1.11;61.99;99496.19;5014249;28;20034;-59
2022/03/02 07:32:25;;;;;;;14.33;8.13;;;;;;;1.22;62.94;99487.31;5015608;28;20037;-59
2022/03/02 07:34:56;;;;;;;16.57;8.67;;;;;;;1.31;62.00;99487.59;5021991;28;20479;-60
2022/03/02 07:37:23;;;;;;;17.10;8.87;;;;;;;1.44;61.05;99489.69;5016720;28;20336;-60
2022/03/02 07:39:50;;;;;;;180.07;91.17;;;;;;;1.53;60.48;99486.59;5015229;28;20036;-60
2022/03/02 07:42:15;;;;;;;20.80;14.87;;;;;;;1.70;60.17;99491.31;5015463;28;20037;-60
2022/03/02 07:44:41;;;;;;;41.93;23.67;;;;;;;1.86;59.00;99485.06;5019385;28;20064;-61
2022/03/02 07:47:08;;;;;;;161.73;91.87;;;;;;;1.94;57.92;99491.19;5017273;28;20037;-60
2022/03/02 07:49:35;;;;;;;232.43;106.87;;;;;;;2.02;57.85;99494.78;5019123;28;20030;-60
2022/03/02 07:52:05;;;;;;;118.13;87.33;;;;;;;2.07;57.84;99494.94;5018125;28;20046;-57
2022/03/02 07:54:35;;;;;;;18.20;12.67;;;;;;;2.11;56.94;99492.53;5014716;28;20034;-58
2022/03/02 07:57:01;;;;;;;19.13;14.57;;;;;;;2.27;54.93;99496.34;5012013;28;20897;-59
2022/03/02 07:59:34;;;;;;;16.30;12.43;;;;;;;2.28;54.62;99487.94;5014218;28;20083;-57
2022/03/02 08:01:59;;;;;;;23.23;15.97;;;;;;;2.40;54.17;99489.94;5013359;28;20072;-59
2022/03/02 08:04:27;;;;;;;28.33;25.67;;;;;;;2.51;53.60;99476.75;5011273;28;20038;-59
2022/03/02 08:06:54;;;;;;;23.10;9.87;;;;;;;2.65;52.92;99474.59;5014010;28;20501;-57
2022/03/02 08:09:20;;;;;;;16.53;9.80;;;;;;;2.71;51.31;99470.56;5012765;28;20037;-58
2022/03/02 08:11:46;;;;;;;14.87;12.03;;;;;;;2.79;50.22;99469.88;5011791;28;20077;-60
2022/03/02 08:14:12;;;;;;;15.97;8.47;;;;;;;2.92;49.54;99460.09;5011690;28;20117;-57
2022/03/02 08:16:37;;;;;;;12.00;7.07;;;;;;;2.99;48.88;99456.88;5013228;28;20080;-59
2022/03/02 08:19:05;;;;;;;11.27;7.30;;;;;;;2.95;47.17;99459.31;5013694;28;20478;-58
2022/03/02 08:21:33;;;;;;;13.90;7.23;;;;;;;3.07;46.01;99454.53;5012022;28;20069;-56
2022/03/02 08:24:05;;;;;;;13.30;7.70;;;;;;;3.11;46.69;99448.72;5013501;28;20033;-57
2022/03/02 08:26:33;;;;;;;11.10;6.67;;;;;;;3.31;45.38;99456.81;5013796;28;20111;-57
2022/03/02 08:29:04;;;;;;;18.40;7.53;;;;;;;3.46;43.66;99444.47;5013102;28;20044;-56
2022/03/02 08:31:31;;;;;;;15.87;5.83;;;;;;;3.43;43.30;99449.47;5012699;28;20038;-56
2022/03/02 08:33:59;;;;;;;15.30;8.70;;;;;;;3.46;43.56;99439.41;5012092;28;20060;-57
2022/03/02 08:36:27;;;;;;;18.37;16.50;;;;;;;3.71;42.53;99450.91;5012221;28;20034;-57
2022/03/02 08:38:54;;;;;;;83.57;76.93;;;;;;;3.77;41.87;99440.91;5011476;28;20108;-59
2022/03/02 08:41:20;;;;;;;80.27;73.93;;;;;;;3.86;41.16;99446.19;5012517;28;20204;-58
2022/03/02 08:43:47;;;;;;;57.30;53.07;;;;;;;3.81;40.90;99443.56;5013063;28;20049;-58
2022/03/02 08:46:13;;;;;;;40.40;37.43;;;;;;;3.91;40.74;99435.28;5013896;28;20099;-59
2022/03/02 08:48:39;;;;;;;39.20;36.20;;;;;;;3.88;40.47;99430.16;5014690;28;20050;-59
2022/03/02 08:51:05;;;;;;;40.43;37.40;;;;;;;4.01;40.29;99428.72;5012329;28;20459;-59
2022/03/02 08:53:32;;;;;;;40.53;37.50;;;;;;;3.87;40.16;99412.38;5014147;28;20046;-58
2022/03/02 08:56:00;;;;;;;38.73;35.73;;;;;;;3.98;40.00;99426.13;5012657;28;20121;-59
2022/03/02 08:58:28;;;;;;;31.20;28.60;;;;;;;4.00;40.54;99409.25;5012083;28;20029;-59
2022/03/02 09:00:54;;;;;;;17.10;13.60;;;;;;;3.94;40.86;99416.75;5012994;28;20030;-58
2022/03/02 09:03:21;;;;;;;16.63;8.93;;;;;;;4.06;40.79;99406.84;5013459;28;20115;-59
2022/03/02 09:05:48;;;;;;;17.57;11.13;;;;;;;4.25;41.38;99406.34;5011695;28;20121;-58
2022/03/02 09:08:15;;;;;;;17.33;9.47;;;;;;;4.44;41.19;99397.41;5012466;28;20042;-59
2022/03/02 09:10:42;;;;;;;15.90;8.57;;;;;;;4.45;40.50;99394.03;5016937;28;20033;-59
2022/03/02 09:13:10;;;;;;;17.53;9.43;;;;;;;4.41;41.39;99388.03;5015011;28;20060;-59
2022/03/02 09:15:37;;;;;;;13.07;6.87;;;;;;;4.43;41.43;99386.38;5016177;28;20042;-59
2022/03/02 09:18:06;;;;;;;15.23;8.97;;;;;;;4.45;41.27;99381.34;5017224;28;20412;-58
2022/03/02 09:20:33;;;;;;;12.63;7.77;;;;;;;4.71;42.16;99381.78;5015794;28;20038;-58
2022/03/02 09:23:04;;;;;;;15.57;8.27;;;;;;;4.40;42.85;99380.41;5016608;28;20042;-58
2022/03/02 09:25:31;;;;;;;14.90;8.97;;;;;;;4.17;43.64;99374.91;5017354;28;20033;-58
2022/03/02 09:27:56;;;;;;;14.90;8.80;;;;;;;4.26;44.66;99367.47;5018145;28;20050;-57
2022/03/02 09:30:22;;;;;;;13.97;8.13;;;;;;;4.46;44.24;99366.13;5016094;28;20360;-59
2022/03/02 09:32:52;;;;;;;14.20;8.43;;;;;;;4.68;44.09;99363.94;5017985;28;20045;-59
2022/03/02 09:35:20;;;;;;;15.40;9.73;;;;;;;4.76;44.11;99365.75;5016773;28;20038;-59
2022/03/02 09:37:52;;;;;;;17.57;8.50;;;;;;;4.64;43.89;99362.19;5016693;28;20132;-60
2022/03/02 09:40:29;;;;;;;17.17;9.27;;;;;;;4.51;45.21;99369.59;5015794;28;20037;-59
2022/03/02 09:42:59;;;;;;;18.67;8.27;;;;;;;4.63;44.57;99352.84;5016632;28;20038;-58
2022/03/02 09:45:27;;;;;;;17.73;8.33;;;;;;;4.93;44.30;99360.94;5017297;28;20057;-59
2022/03/02 09:47:58;;;;;;;18.00;9.10;;;;;;;5.10;43.84;99353.56;5015766;28;20493;-60
2022/03/02 09:50:27;;;;;;;15.17;7.90;;;;;;;5.22;42.88;99354.59;5015349;28;20045;-59
2022/03/02 09:52:54;;;;;;;15.30;8.10;;;;;;;4.82;43.47;99345.56;5016209;28;20106;-61
2022/03/02 09:55:24;;;;;;;11.27;6.67;;;;;;;4.72;43.38;99353.84;5016329;28;20044;-59
2022/03/02 09:57:55;;;;;;;12.53;7.37;;;;;;;4.81;43.75;99337.91;5013599;28;20056;-61
2022/03/02 10:00:24;;;;;;;12.60;7.93;;;;;;;4.95;43.28;99344.91;5014252;28;20127;-58
2022/03/02 10:02:52;;;;;;;14.90;7.57;;;;;;;5.12;43.06;99340.06;5016242;28;20095;-57
2022/03/02 10:05:21;;;;;;;13.83;7.63;;;;;;;5.12;42.80;99342.59;5018389;28;20535;-60
2022/03/02 10:08:03;;;;;;;14.03;7.63;;;;;;;5.26;42.62;99338.53;5015151;28;20049;-60
2022/03/02 10:10:33;;;;;;;11.40;7.53;;;;;;;5.29;41.94;99332.66;5015116;28;20029;-60
2022/03/02 10:13:01;;;;;;;13.83;7.73;;;;;;;5.45;41.93;99332.88;5014681;28;20096;-61
2022/03/02 10:15:27;;;;;;;17.07;8.50;;;;;;;5.46;41.61;99332.06;5016193;28;20671;-58
2022/03/02 10:17:58;;;;;;;18.73;8.63;;;;;;;5.60;41.15;99329.66;5014983;28;20053;-60
2022/03/02 10:20:28;;;;;;;12.07;7.60;;;;;;;5.62;41.22;99333.09;5014780;28;20066;-61
2022/03/02 10:22:54;;;;;;;22.10;20.00;;;;;;;5.62;40.59;99333.09;5017021;28;20045;-59
2022/03/02 10:25:27;;;;;;;17.37;14.50;;;;;;;5.56;40.68;99335.53;5011973;28;20042;-59
2022/03/02 10:28:03;;;;;;;12.77;8.00;;;;;;;5.48;40.74;99332.91;5014220;28;20046;-60
2022/03/02 10:30:40;;;;;;;11.93;8.27;;;;;;;5.56;41.18;99327.91;5016868;28;20219;-59
2022/03/02 10:33:19;;;;;;;15.50;10.03;;;;;;;5.42;41.95;99324.38;5015335;28;20882;-60
2022/03/02 10:35:53;;;;;;;15.37;8.80;;;;;;;5.73;41.04;99323.06;5015787;28;20976;-60
2022/03/02 10:38:37;;;;;;;16.77;9.27;;;;;;;5.77;41.02;99314.63;5015343;28;20674;-59
2022/03/02 10:41:03;;;;;;;13.17;8.33;;;;;;;5.96;40.75;99307.22;5015312;28;20179;-59
2022/03/02 10:44:12;;;;;;;12.30;7.93;;;;;;;6.04;40.98;99302.19;5016641;28;20128;-59
2022/03/02 10:46:41;;;;;;;19.23;9.80;;;;;;;5.96;40.29;99308.91;4989303;28;20141;-58
2022/03/02 10:49:34;;;;;;;11.93;8.03;;;;;;;5.92;40.23;99297.84;4988049;28;20036;-62
2022/03/02 10:52:01;;;;;;;11.03;7.03;;;;;;;5.70;40.01;99297.56;4986534;28;20109;-59
2022/03/02 10:54:30;;;;;;;16.70;7.40;;;;;;;5.87;39.68;99296.94;4987708;28;20066;-59
2022/03/02 10:57:02;;;;;;;12.33;7.73;;;;;;;5.92;39.11;99284.25;4987153;28;20050;-60
2022/03/02 10:59:31;;;;;;;18.37;7.43;;;;;;;5.92;39.35;99290.22;4987628;28;20054;-59
2022/03/02 11:01:58;;;;;;;14.67;7.17;;;;;;;5.92;39.55;99282.56;4987970;28;20046;-60
2022/03/02 11:04:23;;;;;;;15.13;8.43;;;;;;;5.75;39.95;99276.44;4989790;28;20050;-59
2022/03/02 11:06:49;;;;;;;16.03;9.03;;;;;;;5.75;40.12;99268.78;4988029;28;20049;-59
2022/03/02 11:09:20;;;;;;;11.30;7.43;;;;;;;5.87;39.84;99268.94;4986930;28;20045;-60
2022/03/02 11:11:47;;;;;;;13.50;7.53;;;;;;;6.02;38.78;99257.22;4987472;28;20073;-60
2022/03/02 11:14:13;;;;;;;13.80;7.50;;;;;;;6.12;38.32;99253.91;4987491;28;20101;-56
2022/03/02 11:16:39;;;;;;;14.20;7.23;;;;;;;6.35;38.32;99245.63;4990660;28;20057;-60
2022/03/02 11:19:16;;;;;;;13.67;8.00;;;;;;;6.33;38.32;99252.38;5012009;28;20112;-60
2022/03/02 11:21:43;;;;;;;12.13;7.50;;;;;;;6.45;38.08;99245.69;5015223;28;20495;-59
2022/03/02 11:24:15;;;;;;;13.43;7.90;;;;;;;6.34;37.68;99248.16;5012239;28;20041;-59
2022/03/02 11:26:42;;;;;;;13.43;8.03;;;;;;;6.47;37.66;99236.34;5015114;28;20132;-60
2022/03/02 11:29:15;;;;;;;13.97;7.70;;;;;;;6.52;37.16;99235.56;5014597;28;20045;-58
2022/03/02 11:31:47;;;;;;;13.70;7.83;;;;;;;6.40;37.92;99228.69;5010892;28;20065;-58